Time;durP1;ratioP1;P1;durP2;ratioP2;P2;SDS_P1;SDS_P2;PMS_P1;PMS_P2;Temp;Humidity;BMP_temperature;BMP_pressure;BME280_temperature;BME280_humidity;BME280_pressure;Samples;Min_cycle;Max_cycle;Signal;HPM_P1;HPM_P2
2023/12/10 00:01:19;;;;;;;;;;;;;;;11.99;49.44;99169.88;4944090;28;98487;-71
2023/12/10 00:03:45;;;;;;;;;;;;;;;11.99;49.25;99144.78;4924481;28;99393;-66
2023/12/10 00:06:11;;;;;;;;;;;;;;;11.98;49.61;99149.38;4921675;28;105067;-71
2023/12/10 00:08:37;;;;;;;;;;;;;;;11.97;49.55;99161.28;4903751;28;114413;-66
2023/12/10 00:11:03;;;;;;;;;;;;;;;11.97;49.38;99155.09;4922512;28;99871;-71
2023/12/10 00:13:29;;;;;;;;;;;;;;;11.96;49.29;99157.00;4944850;28;98220;-66
2023/12/10 00:15:55;;;;;;;;;;;;;;;11.96;49.43;99151.59;4924854;28;117820;-65
2023/12/10 00:18:21;;;;;;;;;;;;;;;11.96;49.38;99146.19;4925621;28;98329;-70
2023/12/10 00:20:47;;;;;;;;;;;;;;;11.96;49.46;99140.00;4904982;28;98378;-66
2023/12/10 00:23:13;;;;;;;;;;;;;;;11.96;49.34;99148.09;4935926;28;127175;-66
2023/12/10 00:25:39;;;;;;;;;;;;;;;11.94;49.31;99142.97;4953001;28;98293;-65
2023/12/10 00:28:05;;;;;;;;;;;;;;;11.93;49.42;99133.28;4939466;28;116436;-71
2023/12/10 00:30:31;;;;;;;;;;;;;;;11.92;49.48;99128.22;4941028;28;98487;-65
2023/12/10 00:32:57;;;;;;;;;;;;;;;11.90;49.47;99131.22;4920424;28;100441;-70
2023/12/10 00:35:23;;;;;;;;;;;;;;;11.91;49.71;99119.31;4926269;28;116888;-71
2023/12/10 00:37:49;;;;;;;;;;;;;;;11.91;49.30;99132.03;4924543;28;111784;-69
2023/12/10 00:40:15;;;;;;;;;;;;;;;11.90;49.33;99138.50;4951357;28;103667;-70
2023/12/10 00:42:43;;;;;;;;;;;;;;;11.89;49.48;99128.81;4928076;28;98597;-66
2023/12/10 00:45:09;;;;;;;;;;;;;;;11.89;49.25;99137.72;4906455;28;98968;-65
2023/12/10 00:47:36;;;;;;;;;;;;;;;11.89;49.33;99131.53;4940144;28;99450;-65
2023/12/10 00:50:03;;;;;;;;;;;;;;;11.88;49.30;99140.75;4902742;28;98642;-71
2023/12/10 00:52:29;;;;;;;;;;;;;;;11.88;49.37;99138.03;4907783;28;99877;-66
2023/12/10 00:54:55;;;;;;;;;;;;;;;11.87;49.41;99137.25;4927699;28;98295;-71
2023/12/10 00:57:21;;;;;;;;;;;;;;;11.87;49.33;99139.94;4926948;28;98550;-67
2023/12/10 00:59:47;;;;;;;;;;;;;;;11.86;49.49;99135.63;4909407;28;98330;-71
2023/12/10 01:02:13;;;;;;;;;;;;;;;11.86;49.40;99141.03;4902923;28;98550;-66
2023/12/10 01:04:39;;;;;;;;;;;;;;;11.87;49.34;99141.81;4926956;28;98458;-67
2023/12/10 01:07:07;;;;;;;;;;;;;;;11.87;49.49;99144.53;4944524;28;98288;-66
2023/12/10 01:09:36;;;;;;;;;;;;;;;11.87;49.44;99153.44;4945247;28;98347;-66
2023/12/10 01:12:03;;;;;;;;;;;;;;;11.87;49.58;99149.91;4912194;28;98557;-71
2023/12/10 01:14:29;;;;;;;;;;;;;;;11.87;49.52;99152.63;4908098;28;99433;-66
2023/12/10 01:16:55;;;;;;;;;;;;;;;11.87;49.52;99158.03;4925250;28;98120;-71
2023/12/10 01:19:22;;;;;;;;;;;;;;;11.87;49.48;99158.03;4926249;28;106272;-71
2023/12/10 01:21:49;;;;;;;;;;;;;;;11.88;49.33;99156.94;4940272;28;99514;-71
2023/12/10 01:24:18;;;;;;;;;;;;;;;11.87;49.42;99156.16;4940040;28;98489;-71
2023/12/10 01:26:44;;;;;;;;;;;;;;;11.89;49.41;99163.94;4938989;28;98329;-71
2023/12/10 01:29:10;;;;;;;;;;;;;;;11.89;49.44;99166.63;4944138;28;99882;-66
2023/12/10 01:31:36;;;;;;;;;;;;;;;11.90;49.53;99174.41;4943265;28;98320;-71
2023/12/10 01:34:03;;;;;;;;;;;;;;;11.90;49.33;99169.00;4938711;28;98614;-66
2023/12/10 01:36:29;;;;;;;;;;;;;;;11.91;49.37;99172.53;4942881;28;98046;-66
2023/12/10 01:38:56;;;;;;;;;;;;;;;11.92;49.52;99176.81;4923901;28;98436;-71
2023/12/10 01:41:23;;;;;;;;;;;;;;;11.91;49.47;99176.03;4920828;28;98074;-71
2023/12/10 01:43:49;;;;;;;;;;;;;;;11.93;49.31;99173.81;4910535;28;98296;-66
2023/12/10 01:46:16;;;;;;;;;;;;;;;11.93;49.28;99173.81;4929109;28;98140;-71
2023/12/10 01:48:42;;;;;;;;;;;;;;;11.94;49.36;99171.91;4928936;28;98144;-66
2023/12/10 01:51:08;;;;;;;;;;;;;;;11.95;49.42;99171.59;4931673;28;99097;-66
2023/12/10 01:53:34;;;;;;;;;;;;;;;11.95;49.41;99168.91;4942579;28;109269;-71
2023/12/10 01:56:00;;;;;;;;;;;;;;;11.96;49.54;99173.19;4935617;28;113728;-66
2023/12/10 01:58:27;;;;;;;;;;;;;;;11.96;49.36;99158.91;4943348;28;108347;-71
2023/12/10 02:00:53;;;;;;;;;;;;;;;11.96;49.47;99172.41;4947780;28;97995;-66
2023/12/10 02:03:19;;;;;;;;;;;;;;;11.96;49.49;99170.50;4900971;28;98118;-71
2023/12/10 02:05:44;;;;;;;;;;;;;;;11.96;49.42;99164.31;4924677;28;126247;-71
2023/12/10 02:08:11;;;;;;;;;;;;;;;11.97;49.33;99163.19;4925158;28;122561;-70
2023/12/10 02:10:36;;;;;;;;;;;;;;;11.97;49.44;99163.19;4944183;28;98927;-71
2023/12/10 02:13:04;;;;;;;;;;;;;;;11.98;49.25;99165.56;4941766;28;98616;-65
2023/12/10 02:15:30;;;;;;;;;;;;;;;11.98;49.29;99164.78;4928644;28;98120;-66
2023/12/10 02:17:56;;;;;;;;;;;;;;;11.98;49.40;99159.38;4942338;28;99478;-71
2023/12/10 02:20:22;;;;;;;;;;;;;;;11.98;49.52;99159.38;4953581;28;129950;-71
2023/12/10 02:23:04;;;;;;;;;;;;;;;11.96;49.30;99157.00;4940538;28;98060;-71
2023/12/10 02:25:33;;;;;;;;;;;;;;;11.97;49.43;99157.78;4939120;28;97900;-70
2023/12/10 02:28:00;;;;;;;;;;;;;;;11.97;49.24;99163.19;4942101;28;98240;-70
2023/12/10 02:30:26;;;;;;;;;;;;;;;11.96;49.22;99159.69;4925231;28;98355;-66
2023/12/10 02:32:52;;;;;;;;;;;;;;;11.97;49.50;99152.38;4925566;28;98136;-70
2023/12/10 02:35:18;;;;;;;;;;;;;;;11.96;49.37;99150.78;4925770;28;101742;-70
2023/12/10 02:37:44;;;;;;;;;;;;;;;11.96;49.43;99159.69;4941109;28;130610;-70
2023/12/10 02:40:11;;;;;;;;;;;;;;;11.96;49.12;99165.09;4956081;28;99512;-65
2023/12/10 02:42:37;;;;;;;;;;;;;;;11.96;49.39;99162.41;4958474;28;98429;-65
2023/12/10 02:45:03;;;;;;;;;;;;;;;11.97;49.40;99157.78;4933280;28;100689;-70
2023/12/10 02:47:29;;;;;;;;;;;;;;;11.97;49.42;99174.00;4928312;28;98025;-70
2023/12/10 02:49:55;;;;;;;;;;;;;;;11.97;49.29;99166.69;4954414;28;117245;-70
2023/12/10 02:52:24;;;;;;;;;;;;;;;11.99;49.52;99163.69;4923917;28;116660;-66
2023/12/10 02:54:50;;;;;;;;;;;;;;;11.98;49.42;99162.06;4923315;28;99295;-70
2023/12/10 02:57:16;;;;;;;;;;;;;;;11.97;49.52;99163.97;4954265;28;98483;-66
2023/12/10 02:59:42;;;;;;;;;;;;;;;11.99;49.26;99166.38;4931074;28;97982;-66
2023/12/10 03:02:08;;;;;;;;;;;;;;;12.00;49.23;99168.78;4931159;28;99715;-66
2023/12/10 03:04:34;;;;;;;;;;;;;;;11.99;49.33;99178.00;4945158;28;129876;-66
2023/12/10 03:07:00;;;;;;;;;;;;;;;11.99;49.20;99175.28;4926124;28;128992;-70
2023/12/10 03:09:26;;;;;;;;;;;;;;;11.99;49.63;99178.00;4943368;28;99401;-66
2023/12/10 03:11:52;;;;;;;;;;;;;;;12.01;49.33;99172.28;4944391;28;97941;-66
2023/12/10 03:14:18;;;;;;;;;;;;;;;12.01;49.43;99175.75;4921594;28;129530;-70
2023/12/10 03:16:44;;;;;;;;;;;;;;;12.03;49.33;99178.19;4899044;28;128698;-70
2023/12/10 03:19:10;;;;;;;;;;;;;;;12.02;49.50;99176.56;4923060;28;125714;-66
2023/12/10 03:21:36;;;;;;;;;;;;;;;12.03;49.30;99183.56;4924159;28;98260;-66
2023/12/10 03:24:04;;;;;;;;;;;;;;;12.04;49.48;99187.88;4905031;28;119086;-71
2023/12/10 03:26:30;;;;;;;;;;;;;;;12.03;49.54;99192.47;4903153;28;99317;-66
2023/12/10 03:28:56;;;;;;;;;;;;;;;12.04;49.36;99193.25;4904237;28;98298;-71
2023/12/10 03:31:22;;;;;;;;;;;;;;;12.04;49.28;99207.56;4922179;28;115863;-71
2023/12/10 03:33:50;;;;;;;;;;;;;;;12.04;49.43;99212.16;4891086;28;126625;-71
2023/12/10 03:36:17;;;;;;;;;;;;;;;12.04;49.30;99221.06;4924541;28;98887;-66
2023/12/10 03:38:43;;;;;;;;;;;;;;;12.06;49.65;99223.44;4923727;28;98262;-66
2023/12/10 03:41:09;;;;;;;;;;;;;;;12.07;49.19;99213.47;4920027;28;98364;-66
2023/12/10 03:43:35;;;;;;;;;;;;;;;12.08;49.33;99204.25;4925088;28;99510;-71
2023/12/10 03:46:01;;;;;;;;;;;;;;;12.08;49.12;99226.66;4921311;28;131234;-66
2023/12/10 03:48:27;;;;;;;;;;;;;;;12.09;49.37;99228.25;4924284;28;98184;-71
2023/12/10 03:50:53;;;;;;;;;;;;;;;12.10;49.48;99218.22;4906883;28;116544;-71
2023/12/10 03:53:19;;;;;;;;;;;;;;;12.11;49.47;99217.94;4919233;28;108646;-66
2023/12/10 03:55:45;;;;;;;;;;;;;;;12.11;49.49;99223.34;4926064;28;130417;-71
2023/12/10 03:58:11;;;;;;;;;;;;;;;12.13;49.54;99225.72;4920126;28;127613;-66
2023/12/10 04:00:37;;;;;;;;;;;;;;;12.14;49.47;99235.44;4921098;28;98329;-71
2023/12/10 04:03:03;;;;;;;;;;;;;;;12.14;49.53;99238.13;4919631;28;100014;-67
2023/12/10 04:05:29;;;;;;;;;;;;;;;12.15;49.15;99231.63;4922429;28;106065;-71
2023/12/10 04:07:55;;;;;;;;;;;;;;;12.16;49.43;99252.13;4924138;28;98081;-66
2023/12/10 04:10:21;;;;;;;;;;;;;;;12.16;49.53;99250.22;4901846;28;102776;-71
2023/12/10 04:12:47;;;;;;;;;;;;;;;12.18;49.53;99261.53;4908706;28;99265;-70
2023/12/10 04:15:13;;;;;;;;;;;;;;;12.19;49.33;99265.03;4934791;28;98426;-68
2023/12/10 04:17:39;;;;;;;;;;;;;;;12.20;49.33;99272.81;4939422;28;99323;-66
2023/12/10 04:20:07;;;;;;;;;;;;;;;12.20;49.34;99264.72;4893486;28;110298;-70
2023/12/10 04:22:33;;;;;;;;;;;;;;;12.22;49.42;99275.22;4940899;28;104065;-66
2023/12/10 04:24:59;;;;;;;;;;;;;;;12.23;49.29;99276.81;4907558;28;98255;-66
2023/12/10 04:27:25;;;;;;;;;;;;;;;12.23;49.44;99277.63;4949820;28;98239;-66
2023/12/10 04:29:51;;;;;;;;;;;;;;;12.25;49.30;99285.41;4906667;28;98513;-66
2023/12/10 04:32:17;;;;;;;;;;;;;;;12.26;49.24;99289.69;4908096;28;99559;-71
2023/12/10 04:34:43;;;;;;;;;;;;;;;12.27;49.30;99291.31;4933746;28;100151;-71
2023/12/10 04:37:09;;;;;;;;;;;;;;;12.27;49.44;99289.41;4937488;28;125264;-70
2023/12/10 04:39:35;;;;;;;;;;;;;;;12.29;49.31;99291.78;4938118;28;117688;-66
2023/12/10 04:42:02;;;;;;;;;;;;;;;12.31;49.35;99299.63;4908763;28;99747;-71
2023/12/10 04:44:28;;;;;;;;;;;;;;;12.31;49.28;99296.91;4941315;28;98662;-71
2023/12/10 04:46:55;;;;;;;;;;;;;;;12.32;49.48;99291.19;4939769;28;99410;-66
2023/12/10 04:49:21;;;;;;;;;;;;;;;12.33;49.39;99300.09;4934833;28;98167;-70
2023/12/10 04:51:47;;;;;;;;;;;;;;;12.34;49.29;99299.81;4909474;28;118382;-71
2023/12/10 04:54:13;;;;;;;;;;;;;;;12.35;49.27;99304.09;4944021;28;98397;-66
2023/12/10 04:56:39;;;;;;;;;;;;;;;12.36;49.41;99311.09;4924968;28;128528;-70
2023/12/10 04:59:05;;;;;;;;;;;;;;;12.36;49.37;99308.38;4923710;28;98912;-70
2023/12/10 05:01:31;;;;;;;;;;;;;;;12.38;49.37;99316.16;4908928;28;125118;-66
2023/12/10 05:03:57;;;;;;;;;;;;;;;12.40;49.44;99324.78;4924307;28;128145;-66
2023/12/10 05:06:23;;;;;;;;;;;;;;;12.40;49.43;99316.69;4921260;28;112528;-66
2023/12/10 05:08:49;;;;;;;;;;;;;;;12.41;49.57;99324.47;4923985;28;98630;-70
2023/12/10 05:11:15;;;;;;;;;;;;;;;12.42;49.26;99328.78;4916049;28;98517;-66
2023/12/10 05:13:41;;;;;;;;;;;;;;;12.42;49.63;99336.91;4902141;28;126149;-66
2023/12/10 05:16:07;;;;;;;;;;;;;;;12.45;49.47;99341.66;4907120;28;98112;-70
2023/12/10 05:18:33;;;;;;;;;;;;;;;12.46;49.54;99340.59;4904493;28;100272;-70
2023/12/10 05:20:59;;;;;;;;;;;;;;;12.48;49.71;99342.97;4927798;28;122996;-67
2023/12/10 05:23:25;;;;;;;;;;;;;;;12.48;49.57;99346.47;4911107;28;102088;-67
2023/12/10 05:25:53;;;;;;;;;;;;;;;12.50;49.28;99349.69;4909768;28;97975;-66
2023/12/10 05:28:19;;;;;;;;;;;;;;;12.52;49.24;99352.06;4923615;28;98080;-70
2023/12/10 05:30:46;;;;;;;;;;;;;;;12.53;49.67;99353.66;4908404;28;98119;-66
2023/12/10 05:33:11;;;;;;;;;;;;;;;12.53;49.23;99359.06;4923217;28;98254;-66
2023/12/10 05:35:38;;;;;;;;;;;;;;;12.55;49.32;99366.88;4906645;28;99463;-66
2023/12/10 05:38:06;;;;;;;;;;;;;;;12.58;49.59;99379.78;4935519;28;98185;-70
2023/12/10 05:40:32;;;;;;;;;;;;;;;12.58;49.49;99382.50;4938999;28;98459;-66
2023/12/10 05:42:57;;;;;;;;;;;;;;;12.59;49.33;99384.88;4890965;28;108187;-66
2023/12/10 05:45:23;;;;;;;;;;;;;;;12.60;49.17;99391.06;4909343;28;125959;-66
2023/12/10 05:47:49;;;;;;;;;;;;;;;12.61;49.64;99382.66;4920893;28;104772;-66
2023/12/10 05:50:16;;;;;;;;;;;;;;;12.63;49.45;99385.84;4910356;28;117467;-71
2023/12/10 05:52:41;;;;;;;;;;;;;;;12.64;49.52;99390.16;4888843;28;100365;-70
2023/12/10 05:55:08;;;;;;;;;;;;;;;12.67;49.69;99399.56;4910554;28;100278;-71
2023/12/10 05:57:34;;;;;;;;;;;;;;;12.68;49.37;99409.25;4909972;28;98950;-66
2023/12/10 06:00:00;;;;;;;;;;;;;;;12.69;49.58;99408.97;4909254;28;99579;-71
2023/12/10 06:02:26;;;;;;;;;;;;;;;12.70;49.25;99413.28;4937131;28;128437;-70
2023/12/10 06:04:52;;;;;;;;;;;;;;;12.72;49.33;99412.97;4909946;28;99971;-71
2023/12/10 06:07:18;;;;;;;;;;;;;;;12.73;49.73;99423.47;4926457;28;98044;-70
2023/12/10 06:09:44;;;;;;;;;;;;;;;12.74;49.61;99425.06;4908632;28;110740;-66
2023/12/10 06:12:10;;;;;;;;;;;;;;;12.76;49.29;99416.66;4913602;28;129144;-66
2023/12/10 06:14:36;;;;;;;;;;;;;;;12.77;49.53;99424.47;4923190;28;98723;-67
2023/12/10 06:17:02;;;;;;;;;;;;;;;12.78;49.82;99423.34;4925743;28;98302;-71
2023/12/10 06:19:28;;;;;;;;;;;;;;;12.79;49.34;99413.34;4941745;28;122332;-70
2023/12/10 06:21:54;;;;;;;;;;;;;;;12.81;49.20;99419.25;4938786;28;99854;-66
2023/12/10 06:24:20;;;;;;;;;;;;;;;12.82;49.55;99425.44;4952248;28;99589;-70
2023/12/10 06:26:46;;;;;;;;;;;;;;;12.83;49.50;99432.44;4946073;28;119280;-66
2023/12/10 06:29:12;;;;;;;;;;;;;;;12.84;49.31;99439.44;4923987;28;98270;-70
2023/12/10 06:31:38;;;;;;;;;;;;;;;12.85;49.67;99435.63;4895291;28;98411;-66
2023/12/10 06:34:04;;;;;;;;;;;;;;;12.86;49.35;99437.25;4925812;28;105681;-71
2023/12/10 06:36:30;;;;;;;;;;;;;;;12.87;49.61;99433.44;4936963;28;98388;-71
2023/12/10 06:38:56;;;;;;;;;;;;;;;12.87;49.32;99438.84;4907118;28;98481;-67
2023/12/10 06:41:22;;;;;;;;;;;;;;;12.88;49.33;99438.53;4938277;28;127459;-71
2023/12/10 06:43:48;;;;;;;;;;;;;;;12.89;49.37;99447.44;4909494;28;98471;-70
2023/12/10 06:46:17;;;;;;;;;;;;;;;12.91;49.42;99458.75;4945014;28;98127;-70
2023/12/10 06:48:43;;;;;;;;;;;;;;;12.91;49.49;99469.56;4945171;28;98904;-66
2023/12/10 06:51:09;;;;;;;;;;;;;;;12.91;49.28;99473.06;4907213;28;98140;-66
2023/12/10 06:53:35;;;;;;;;;;;;;;;12.92;49.38;99471.16;4921726;28;98337;-66
2023/12/10 06:56:01;;;;;;;;;;;;;;;12.93;49.41;99464.66;4936263;28;113179;-71
2023/12/10 06:58:27;;;;;;;;;;;;;;;12.91;49.29;99477.69;4952583;28;106501;-66
2023/12/10 07:00:56;;;;;;;;;;;;;;;12.92;49.67;99479.28;4923598;28;126823;-66
2023/12/10 07:03:22;;;;;;;;;;;;;;;12.93;49.32;99491.69;4951363;28;98844;-67
2023/12/10 07:05:48;;;;;;;;;;;;;;;12.93;49.40;99499.81;4940053;28;98561;-70
2023/12/10 07:08:14;;;;;;;;;;;;;;;12.93;49.62;99500.63;4921969;28;126027;-70
2023/12/10 07:10:40;;;;;;;;;;;;;;;12.92;49.48;99501.72;4911448;28;99517;-70
2023/12/10 07:13:06;;;;;;;;;;;;;;;12.94;49.53;99514.94;4939417;28;98358;-66
2023/12/10 07:15:32;;;;;;;;;;;;;;;12.96;49.58;99512.72;4940210;28;121098;-66
2023/12/10 07:17:58;;;;;;;;;;;;;;;12.97;49.40;99514.34;4954508;28;128390;-70
2023/12/10 07:20:24;;;;;;;;;;;;;;;12.99;49.38;99517.53;4924642;28;98696;-66
2023/12/10 07:22:50;;;;;;;;;;;;;;;12.98;49.26;99519.44;4938600;28;99543;-66
2023/12/10 07:25:18;;;;;;;;;;;;;;;13.02;49.54;99533.16;4926589;28;98318;-70
2023/12/10 07:27:44;;;;;;;;;;;;;;;13.04;49.21;99536.34;4918708;28;98434;-69
2023/12/10 07:30:11;;;;;;;;;;;;;;;13.07;49.59;99532.25;4920806;28;127071;-66
2023/12/10 07:32:37;;;;;;;;;;;;;;;13.09;49.20;99533.53;4936407;28;98934;-66
2023/12/10 07:35:03;;;;;;;;;;;;;;;13.11;49.44;99544.84;4906817;28;98360;-70
2023/12/10 07:37:29;;;;;;;;;;;;;;;13.13;49.51;99550.75;4930319;28;100499;-66
2023/12/10 07:39:55;;;;;;;;;;;;;;;13.15;49.50;99539.63;4924030;28;130215;-71
2023/12/10 07:42:21;;;;;;;;;;;;;;;13.20;49.35;99539.50;4935207;28;98126;-66
2023/12/10 07:44:47;;;;;;;;;;;;;;;13.24;49.32;99537.81;4925251;28;117849;-66
2023/12/10 07:47:13;;;;;;;;;;;;;;;13.29;49.41;99540.41;4923722;28;110081;-66
2023/12/10 07:49:39;;;;;;;;;;;;;;;13.33;49.05;99546.81;4937994;28;127364;-66
2023/12/10 07:52:06;;;;;;;;;;;;;;;13.37;49.04;99549.69;4912096;28;98607;-66
2023/12/10 07:54:32;;;;;;;;;;;;;;;13.39;49.10;99556.38;4942023;28;98507;-66
2023/12/10 07:56:58;;;;;;;;;;;;;;;13.42;49.54;99557.69;4936992;28;124885;-66
2023/12/10 07:59:24;;;;;;;;;;;;;;;13.43;49.20;99560.06;4921378;28;116816;-71
2023/12/10 08:01:50;;;;;;;;;;;;;;;13.44;49.54;99564.41;4934051;28;127751;-70
2023/12/10 08:04:16;;;;;;;;;;;;;;;13.48;49.24;99573.50;4919761;28;98067;-66
2023/12/10 08:06:42;;;;;;;;;;;;;;;13.48;49.54;99570.81;4937263;28;98116;-66
2023/12/10 08:09:08;;;;;;;;;;;;;;;13.51;49.21;99572.06;4920444;28;110220;-69
2023/12/10 08:11:35;;;;;;;;;;;;;;;13.52;49.46;99573.69;4939291;28;98542;-70
2023/12/10 08:14:01;;;;;;;;;;;;;;;13.52;49.44;99573.69;4915376;28;99454;-70
2023/12/10 08:16:27;;;;;;;;;;;;;;;13.53;49.44;99575.28;4921380;28;99950;-66
2023/12/10 08:18:53;;;;;;;;;;;;;;;13.55;49.56;99583.88;4900185;28;127855;-66
2023/12/10 08:21:19;;;;;;;;;;;;;;;13.57;49.43;99587.09;4938712;28;98304;-70
2023/12/10 08:23:45;;;;;;;;;;;;;;;13.58;49.38;99580.56;4898742;28;98333;-66
2023/12/10 08:26:11;;;;;;;;;;;;;;;13.59;49.30;99584.06;4919116;28;98358;-70
2023/12/10 08:28:37;;;;;;;;;;;;;;;13.60;49.22;99578.38;4933906;28;98389;-70
2023/12/10 08:31:03;;;;;;;;;;;;;;;13.62;49.43;99592.38;4903057;28;114292;-70
2023/12/10 08:33:29;;;;;;;;;;;;;;;13.63;49.30;99604.00;4920341;28;98713;-70
2023/12/10 08:35:55;;;;;;;;;;;;;;;13.64;49.42;99594.81;4935356;28;98600;-70
2023/12/10 08:38:22;;;;;;;;;;;;;;;13.65;49.44;99593.69;4921964;28;98729;-70
2023/12/10 08:40:47;;;;;;;;;;;;;;;13.68;49.09;99591.16;4943038;28;98197;-66
2023/12/10 08:43:14;;;;;;;;;;;;;;;13.69;49.24;99597.38;4936604;28;98083;-66
2023/12/10 08:45:39;;;;;;;;;;;;;;;13.70;49.13;99602.47;4940624;28;110179;-70
2023/12/10 08:48:06;;;;;;;;;;;;;;;13.71;49.26;99606.78;4923919;28;123905;-70
2023/12/10 08:50:31;;;;;;;;;;;;;;;13.74;49.08;99602.66;4943137;28;100039;-70
2023/12/10 08:52:57;;;;;;;;;;;;;;;13.79;49.44;99605.22;4908684;28;98419;-70
2023/12/10 08:55:23;;;;;;;;;;;;;;;13.86;49.04;99597.47;4906201;28;99143;-69
2023/12/10 08:57:49;;;;;;;;;;;;;;;13.95;49.39;99602.94;4938291;28;128831;-70
2023/12/10 09:00:16;;;;;;;;;;;;;;;14.04;48.96;99601.09;4919959;28;124752;-66
2023/12/10 09:02:42;;;;;;;;;;;;;;;14.10;48.86;99602.53;4915844;28;98482;-66
2023/12/10 09:05:08;;;;;;;;;;;;;;;14.17;49.34;99602.09;4946665;28;98194;-70
2023/12/10 09:07:34;;;;;;;;;;;;;;;14.27;49.19;99601.03;4908945;28;99601;-70
2023/12/10 09:10:00;;;;;;;;;;;;;;;14.39;48.91;99606.66;4901761;28;123213;-66
2023/12/10 09:12:29;;;;;;;;;;;;;;;14.50;48.77;99613.41;4921262;28;97950;-65
2023/12/10 09:14:55;;;;;;;;;;;;;;;14.60;48.82;99610.44;4913012;28;98251;-70
2023/12/10 09:17:22;;;;;;;;;;;;;;;14.65;48.66;99610.28;4921339;28;98384;-66
2023/12/10 09:19:48;;;;;;;;;;;;;;;14.70;48.91;99620.22;4900121;28;99211;-70
2023/12/10 09:22:14;;;;;;;;;;;;;;;14.73;48.96;99630.41;4927066;28;100410;-70
2023/12/10 09:24:40;;;;;;;;;;;;;;;14.72;48.83;99620.69;4944512;28;98841;-66
2023/12/10 09:27:06;;;;;;;;;;;;;;;14.76;49.03;99626.28;4900115;28;110622;-66
2023/12/10 09:29:38;;;;;;;;;;;;;;;14.78;48.71;99622.16;4921624;28;104707;-70
2023/12/10 09:32:05;;;;;;;;;;;;;;;14.80;48.78;99633.47;4925461;28;98467;-70
2023/12/10 09:34:32;;;;;;;;;;;;;;;14.83;48.92;99632.84;4921925;28;98691;-70
2023/12/10 09:36:58;;;;;;;;;;;;;;;14.86;49.04;99628.72;4902774;28;99486;-70
2023/12/10 09:39:24;;;;;;;;;;;;;;;14.94;48.82;99626.00;4900929;28;98176;-70
2023/12/10 09:41:50;;;;;;;;;;;;;;;15.01;48.94;99628.22;4927174;28;99155;-70
2023/12/10 09:44:16;;;;;;;;;;;;;;;15.09;48.93;99630.19;4928145;28;98038;-67
2023/12/10 09:46:43;;;;;;;;;;;;;;;15.12;48.93;99634.16;4918303;28;119781;-70
2023/12/10 09:49:08;;;;;;;;;;;;;;;15.06;49.24;99632.75;4941330;28;98238;-70
2023/12/10 09:51:35;;;;;;;;;;;;;;;14.99;49.02;99638.63;4903399;28;116477;-71
2023/12/10 09:54:01;;;;;;;;;;;;;;;14.93;49.12;99640.69;4913672;28;98182;-70
2023/12/10 09:56:27;;;;;;;;;;;;;;;14.89;49.11;99641.63;4921914;28;110429;-66
2023/12/10 09:58:53;;;;;;;;;;;;;;;14.89;49.24;99641.63;4902059;28;101201;-66
2023/12/10 10:01:19;;;;;;;;;;;;;;;14.87;49.13;99643.88;4912355;28;100057;-70
2023/12/10 10:03:45;;;;;;;;;;;;;;;14.86;49.17;99640.34;4901307;28;98392;-70
2023/12/10 10:06:11;;;;;;;;;;;;;;;14.85;49.11;99641.44;4902051;28;127664;-66
2023/12/10 10:08:37;;;;;;;;;;;;;;;14.87;49.30;99649.28;4922417;28;99257;-65
2023/12/10 10:11:03;;;;;;;;;;;;;;;14.92;49.28;99649.94;4905892;28;119375;-71
2023/12/10 10:13:30;;;;;;;;;;;;;;;14.95;49.13;99652.03;4899249;28;99720;-66
2023/12/10 10:15:56;;;;;;;;;;;;;;;14.97;49.15;99649.81;4926735;28;97942;-71
2023/12/10 10:18:22;;;;;;;;;;;;;;;14.98;49.22;99647.88;4937490;28;119062;-71
2023/12/10 10:20:48;;;;;;;;;;;;;;;15.00;48.97;99661.13;4926979;28;98017;-71
2023/12/10 10:23:15;;;;;;;;;;;;;;;15.01;49.13;99658.09;4921821;28;123152;-71
2023/12/10 10:25:41;;;;;;;;;;;;;;;15.04;49.13;99656.66;4928429;28;98043;-70
2023/12/10 10:28:09;;;;;;;;;;;;;;;15.03;49.14;99658.59;4938046;28;98636;-66
2023/12/10 10:30:34;;;;;;;;;;;;;;;15.04;49.18;99656.66;4927912;28;98115;-71
2023/12/10 10:33:00;;;;;;;;;;;;;;;15.06;49.27;99670.72;4924668;28;99357;-66
2023/12/10 10:35:26;;;;;;;;;;;;;;;15.06;49.26;99666.09;4938585;28;130613;-66
2023/12/10 10:37:52;;;;;;;;;;;;;;;15.06;49.01;99668.81;4935560;28;127088;-65
2023/12/10 10:40:18;;;;;;;;;;;;;;;15.08;49.32;99672.00;4936678;28;98354;-66
2023/12/10 10:42:45;;;;;;;;;;;;;;;15.08;49.13;99665.78;4936662;28;129826;-66
2023/12/10 10:45:11;;;;;;;;;;;;;;;15.07;49.16;99669.59;4925619;28;100389;-66
2023/12/10 10:47:37;;;;;;;;;;;;;;;15.09;49.03;99673.63;4911074;28;99432;-66
2023/12/10 10:50:03;;;;;;;;;;;;;;;15.13;49.23;99676.47;4941188;28;98226;-66
2023/12/10 10:52:31;;;;;;;;;;;;;;;15.15;49.13;99674.25;4941796;28;98939;-71
2023/12/10 10:54:57;;;;;;;;;;;;;;;15.17;49.12;99674.75;4940672;28;99854;-66
2023/12/10 10:57:37;;;;;;;;;;;;;;;15.16;49.26;99668.50;4953185;28;121192;-70
2023/12/10 11:00:18;;;;;;;;;;;;;;;15.17;49.13;99661.19;4943059;28;98425;-65
2023/12/10 11:02:49;;;;;;;;;;;;;;;15.16;49.22;99663.06;4953394;28;98221;-69
2023/12/10 11:05:31;;;;;;;;;;;;;;;15.15;49.26;99671.53;4943764;28;99392;-66
2023/12/10 11:07:57;;;;;;;;;;;;;;;15.16;49.21;99670.41;4944998;28;98301;-70
2023/12/10 11:10:22;;;;;;;;;;;;;;;15.16;49.17;99673.13;4946796;28;99444;-70
2023/12/10 11:12:49;;;;;;;;;;;;;;;15.18;49.38;99674.41;4927845;28;98395;-66
2023/12/10 11:15:17;;;;;;;;;;;;;;;15.17;49.23;99675.53;4957681;28;99164;-66
2023/12/10 11:17:57;;;;;;;;;;;;;;;15.19;49.10;99675.22;4955176;28;98101;-66
2023/12/10 11:20:37;;;;;;;;;;;;;;;15.17;49.10;99672.03;4958957;28;98222;-70
2023/12/10 11:23:13;;;;;;;;;;;;;;;15.16;49.36;99673.13;4941817;28;98403;-70
2023/12/10 11:25:40;;;;;;;;;;;;;;;15.13;49.43;99669.16;4925445;28;98338;-70
2023/12/10 11:28:13;;;;;;;;;;;;;;;15.11;49.29;99663.22;4924348;28;99569;-70
2023/12/10 11:30:40;;;;;;;;;;;;;;;15.11;49.36;99673.28;4941473;28;98132;-66
2023/12/10 11:33:07;;;;;;;;;;;;;;;15.11;49.43;99674.09;4936454;28;98736;-70
2023/12/10 11:35:33;;;;;;;;;;;;;;;15.12;49.21;99669.44;4942143;28;98700;-66
2023/12/10 11:37:59;;;;;;;;;;;;;;;15.11;49.35;99665.16;4920087;28;98290;-66
2023/12/10 11:40:25;;;;;;;;;;;;;;;15.12;49.47;99647.75;4938820;28;99766;-66
2023/12/10 11:42:51;;;;;;;;;;;;;;;15.15;49.32;99657.97;4955258;28;98193;-66
2023/12/10 11:45:17;;;;;;;;;;;;;;;15.17;49.36;99658.47;4924755;28;127109;-66
2023/12/10 11:47:44;;;;;;;;;;;;;;;15.17;49.38;99656.53;4956545;28;98111;-68
2023/12/10 11:50:11;;;;;;;;;;;;;;;15.20;49.21;99664.03;4926118;28;98352;-65
2023/12/10 11:52:37;;;;;;;;;;;;;;;15.23;49.39;99662.59;4942277;28;98139;-65
2023/12/10 11:55:03;;;;;;;;;;;;;;;15.26;49.18;99661.97;4923147;28;121197;-70
2023/12/10 11:57:29;;;;;;;;;;;;;;;15.30;49.40;99662.16;4922022;28;98140;-65
2023/12/10 11:59:56;;;;;;;;;;;;;;;15.35;49.25;99660.06;4937266;28;117284;-65
2023/12/10 12:02:23;;;;;;;;;;;;;;;15.41;49.21;99647.16;4906813;28;100009;-70
2023/12/10 12:04:52;;;;;;;;;;;;;;;15.49;49.21;99651.78;4939817;28;98349;-71
2023/12/10 12:07:28;;;;;;;;;;;;;;;15.57;49.05;99652.91;4932435;28;98661;-66
2023/12/10 12:09:54;;;;;;;;;;;;;;;15.59;49.02;99656.88;4949155;28;98148;-65
2023/12/10 12:12:23;;;;;;;;;;;;;;;15.60;49.10;99657.66;4940782;28;98910;-70
2023/12/10 12:14:52;;;;;;;;;;;;;;;15.60;49.17;99655.78;4916731;28;98260;-70
2023/12/10 12:17:19;;;;;;;;;;;;;;;15.59;49.16;99648.72;4924617;28;98056;-66
2023/12/10 12:19:45;;;;;;;;;;;;;;;15.59;49.30;99650.66;4933671;28;99454;-65
2023/12/10 12:22:12;;;;;;;;;;;;;;;15.58;49.32;99657.19;4938116;28;112399;-70
2023/12/10 12:24:43;;;;;;;;;;;;;;;15.55;49.25;99658.63;4885108;28;98323;-70
2023/12/10 12:27:09;;;;;;;;;;;;;;;15.60;49.34;99665.81;4948649;28;99410;-70
2023/12/10 12:29:35;;;;;;;;;;;;;;;15.63;49.30;99659.75;4917743;28;104161;-65
2023/12/10 12:32:02;;;;;;;;;;;;;;;15.61;49.26;99651.94;4935990;28;98126;-71
2023/12/10 12:34:28;;;;;;;;;;;;;;;15.64;49.02;99655.91;4905312;28;99849;-65
2023/12/10 12:36:54;;;;;;;;;;;;;;;15.65;49.14;99650.22;4934327;28;98241;-70
2023/12/10 12:39:20;;;;;;;;;;;;;;;15.65;49.40;99650.22;4934988;28;98234;-70